Time;durP1;ratioP1;P1;durP2;ratioP2;P2;SDS_P1;SDS_P2;PMS_P1;PMS_P2;Temp;Humidity;BMP_temperature;BMP_pressure;BME280_temperature;BME280_humidity;BME280_pressure;Samples;Min_cycle;Max_cycle;Signal;HPM_P1;HPM_P2
2022/12/27 00:02:19;;;;;;;15.00;9.90;;;;;;;;;;710845;198;629171;-68
2022/12/27 00:04:45;;;;;;;14.83;9.03;;;;;;;;;;713672;196;819627;-67
2022/12/27 00:07:11;;;;;;;14.80;9.00;;;;;;;;;;719617;197;819774;-68
2022/12/27 00:09:37;;;;;;;14.00;10.33;;;;;;;;;;706679;199;917522;-70
2022/12/27 00:12:03;;;;;;;15.90;10.50;;;;;;;;;;706508;199;914406;-63
2022/12/27 00:14:28;;;;;;;11.43;8.63;;;;;;;;;;711822;199;915076;-64
2022/12/27 00:16:54;;;;;;;14.20;10.27;;;;;;;;;;706093;199;925032;-69
2022/12/27 00:19:20;;;;;;;12.30;9.00;;;;;;;;;;705732;196;915277;-69
2022/12/27 00:21:46;;;;;;;18.75;9.40;;;;;;;;;;706844;197;915802;-64
2022/12/27 00:24:12;;;;;;;12.73;9.27;;;;;;;;;;710759;196;922115;-70
2022/12/27 00:26:38;;;;;;;12.27;8.70;;;;;;;;;;706864;199;919334;-71
2022/12/27 00:29:04;;;;;;;13.50;9.17;;;;;;;;;;705403;199;924010;-64
2022/12/27 00:31:30;;;;;;;15.37;10.17;;;;;;;;;;711413;199;816925;-63
2022/12/27 00:33:55;;;;;;;13.53;9.20;;;;;;;;;;705934;197;919082;-64
2022/12/27 00:36:21;;;;;;;12.83;9.40;;;;;;;;;;706308;197;919169;-70
2022/12/27 00:38:47;;;;;;;13.40;9.13;;;;;;;;;;714191;197;818869;-64
2022/12/27 00:41:13;;;;;;;13.60;8.57;;;;;;;;;;706357;197;920009;-64
2022/12/27 00:43:39;;;;;;;13.20;9.40;;;;;;;;;;709515;197;920594;-64
2022/12/27 00:46:05;;;;;;;14.17;10.20;;;;;;;;;;708827;197;1014831;-65
2022/12/27 00:48:30;;;;;;;13.20;9.10;;;;;;;;;;711607;197;917747;-71
2022/12/27 00:50:56;;;;;;;13.90;8.67;;;;;;;;;;712106;197;919575;-72
2022/12/27 00:53:22;;;;;;;17.13;10.17;;;;;;;;;;712274;194;918751;-72
2022/12/27 00:55:48;;;;;;;12.27;9.03;;;;;;;;;;711150;199;816827;-65
2022/12/27 00:58:14;;;;;;;12.13;9.07;;;;;;;;;;706503;197;918427;-71
2022/12/27 01:00:40;;;;;;;15.50;8.90;;;;;;;;;;707127;197;919365;-65
2022/12/27 01:03:05;;;;;;;9.60;7.23;;;;;;;;;;711303;197;918590;-65
2022/12/27 01:05:31;;;;;;;9.33;7.73;;;;;;;;;;712756;196;915771;-72
2022/12/27 01:07:57;;;;;;;11.60;8.70;;;;;;;;;;707926;199;914622;-71
2022/12/27 01:10:23;;;;;;;13.60;9.53;;;;;;;;;;712172;197;922479;-64
2022/12/27 01:12:49;;;;;;;13.97;8.43;;;;;;;;;;714552;197;919184;-70
2022/12/27 01:15:15;;;;;;;13.90;6.83;;;;;;;;;;706282;199;918819;-71
2022/12/27 01:17:40;;;;;;;11.60;7.43;;;;;;;;;;706658;199;918753;-71
2022/12/27 01:20:07;;;;;;;12.43;7.67;;;;;;;;;;711154;197;916226;-71
2022/12/27 01:22:33;;;;;;;12.88;8.65;;;;;;;;;;706403;199;915677;-71
2022/12/27 01:24:58;;;;;;;11.40;7.20;;;;;;;;;;706200;197;928574;-63
2022/12/27 01:27:24;;;;;;;10.43;7.13;;;;;;;;;;711712;196;818819;-72
2022/12/27 01:29:50;;;;;;;15.37;8.53;;;;;;;;;;707969;198;921743;-70
2022/12/27 01:32:16;;;;;;;12.00;7.20;;;;;;;;;;706404;199;918323;-64
2022/12/27 01:34:42;;;;;;;8.90;7.37;;;;;;;;;;711894;199;930181;-71
2022/12/27 01:37:08;;;;;;;10.47;7.00;;;;;;;;;;706469;199;919411;-70
2022/12/27 01:39:34;;;;;;;9.87;7.07;;;;;;;;;;705541;199;918707;-64
2022/12/27 01:44:32;;;;;;;8.50;6.67;;;;;;;;;;710662;195;916782;-70
2022/12/27 01:46:57;;;;;;;8.67;6.17;;;;;;;;;;705780;199;917554;-73
2022/12/27 01:49:23;;;;;;;9.50;5.97;;;;;;;;;;710823;197;919292;-64
2022/12/27 01:51:49;;;;;;;9.40;5.57;;;;;;;;;;720439;197;798799;-64
2022/12/27 01:54:15;;;;;;;10.73;6.47;;;;;;;;;;714056;197;633341;-64
2022/12/27 01:56:41;;;;;;;10.27;6.33;;;;;;;;;;706334;199;918796;-63
2022/12/27 01:59:07;;;;;;;6.93;5.33;;;;;;;;;;709574;196;920732;-70
2022/12/27 02:01:33;;;;;;;9.13;6.47;;;;;;;;;;715865;195;919159;-64
2022/12/27 02:04:02;;;;;;;8.93;5.60;;;;;;;;;;706787;197;917542;-64
2022/12/27 02:06:28;;;;;;;14.23;6.40;;;;;;;;;;705640;199;919330;-64
2022/12/27 02:09:00;;;;;;;7.53;4.83;;;;;;;;;;710868;197;919354;-70
2022/12/27 02:12:00;;;;;;;11.37;5.90;;;;;;;;;;710301;198;919148;-63
2022/12/27 02:14:09;;;;;;;8.57;6.03;;;;;;;;;;710355;197;919022;-70
2022/12/27 02:16:35;;;;;;;8.67;5.53;;;;;;;;;;708483;196;918922;-70
2022/12/27 02:19:00;;;;;;;11.50;6.83;;;;;;;;;;708464;197;818437;-64
2022/12/27 02:21:30;;;;;;;8.00;6.15;;;;;;;;;;712529;199;915199;-64
2022/12/27 02:24:01;;;;;;;8.87;5.90;;;;;;;;;;706972;196;915188;-64
2022/12/27 02:26:47;;;;;;;9.60;5.97;;;;;;;;;;707165;199;922593;-70
2022/12/27 02:29:15;;;;;;;13.40;6.13;;;;;;;;;;709508;197;918698;-64
2022/12/27 02:31:40;;;;;;;7.10;5.50;;;;;;;;;;714577;197;916181;-71
2022/12/27 02:34:10;;;;;;;11.25;6.28;;;;;;;;;;715235;197;918728;-71
2022/12/27 02:36:36;;;;;;;8.77;5.77;;;;;;;;;;708659;197;802297;-64
2022/12/27 02:39:02;;;;;;;8.30;5.87;;;;;;;;;;706276;199;917632;-67
2022/12/27 02:54:10;;;;;;;13.30;5.67;;;;;;;;;;706105;199;919224;-71
2022/12/27 02:59:10;;;;;;;10.57;5.63;;;;;;;;;;706234;199;918611;-64
2022/12/27 03:04:23;;;;;;;7.87;4.53;;;;;;;;;;705332;198;921460;-64
2022/12/27 03:06:52;;;;;;;8.47;4.17;;;;;;;;;;705223;199;920670;-64
2022/12/27 03:15:53;;;;;;;6.40;3.90;;;;;;;;;;713430;197;917958;-71
2022/12/27 03:16:55;;;;;;;4.20;3.00;;;;;;;;;;714159;197;919192;-65
2022/12/27 03:26:56;;;;;;;3.37;2.00;;;;;;;;;;710256;196;917229;-71
2022/12/27 03:34:31;;;;;;;2.60;1.53;;;;;;;;;;711479;198;928307;-64
2022/12/27 03:39:29;;;;;;;3.13;2.17;;;;;;;;;;706490;198;919063;-63
2022/12/27 03:44:29;;;;;;;2.97;1.52;;;;;;;;;;711164;197;918790;-64
2022/12/27 03:46:55;;;;;;;2.90;1.47;;;;;;;;;;706308;199;917112;-64
2022/12/27 03:49:24;;;;;;;2.73;1.60;;;;;;;;;;706514;196;918477;-71
2022/12/27 03:51:52;;;;;;;3.03;1.67;;;;;;;;;;706325;199;918620;-70
2022/12/27 03:54:25;;;;;;;3.10;1.70;;;;;;;;;;708369;199;916230;-71
2022/12/27 03:56:44;;;;;;;6.60;1.37;;;;;;;;;;698766;201;916477;-63
2022/12/27 03:59:10;;;;;;;2.50;1.27;;;;;;;;;;701207;197;915832;-70
2022/12/27 04:01:36;;;;;;;4.40;1.50;;;;;;;;;;710859;197;917409;-70
2022/12/27 04:04:02;;;;;;;3.03;1.30;;;;;;;;;;707249;197;913782;-70
2022/12/27 04:06:28;;;;;;;3.43;1.77;;;;;;;;;;711359;197;920761;-70
2022/12/27 04:36:42;;;;;;;3.50;1.70;;;;;;;;;;720245;193;919734;-62
2022/12/27 04:39:08;;;;;;;2.30;1.50;;;;;;;;;;717534;195;717089;-62
2022/12/27 04:56:48;;;;;;;4.03;1.60;;;;;;;;;;712079;197;816389;-63
2022/12/27 05:04:17;;;;;;;3.00;1.47;;;;;;;;;;707230;197;916800;-60
2022/12/27 05:06:43;;;;;;;1.70;0.80;;;;;;;;;;714223;197;919118;-70
2022/12/27 05:14:12;;;;;;;1.90;0.90;;;;;;;;;;706795;197;918939;-68
2022/12/27 05:16:38;;;;;;;1.70;0.70;;;;;;;;;;713425;197;918799;-69
2022/12/27 05:19:04;;;;;;;3.10;0.97;;;;;;;;;;718872;194;916858;-61
2022/12/27 05:21:29;;;;;;;1.90;0.87;;;;;;;;;;705752;197;919832;-70
2022/12/27 05:26:27;;;;;;;1.80;0.90;;;;;;;;;;707457;198;818273;-69
2022/12/27 05:28:53;;;;;;;1.93;0.90;;;;;;;;;;711188;197;906345;-65
2022/12/27 05:31:19;;;;;;;1.70;0.90;;;;;;;;;;709532;196;918968;-60
2022/12/27 05:33:45;;;;;;;1.90;0.90;;;;;;;;;;706730;197;919787;-69
2022/12/27 05:36:10;;;;;;;2.00;0.87;;;;;;;;;;717343;197;895149;-71
2022/12/27 05:38:36;;;;;;;2.13;1.23;;;;;;;;;;714114;197;918880;-72
2022/12/27 05:41:02;;;;;;;2.27;1.30;;;;;;;;;;712720;197;919237;-62
2022/12/27 05:43:28;;;;;;;2.77;0.90;;;;;;;;;;714550;197;890759;-70
2022/12/27 05:45:54;;;;;;;3.80;1.33;;;;;;;;;;704801;197;919075;-62
2022/12/27 05:48:20;;;;;;;2.33;1.23;;;;;;;;;;705953;196;1021901;-62
2022/12/27 05:50:46;;;;;;;4.17;1.10;;;;;;;;;;708846;197;920746;-70
2022/12/27 05:53:11;;;;;;;2.37;1.40;;;;;;;;;;707621;197;918944;-62
2022/12/27 05:55:37;;;;;;;2.47;1.40;;;;;;;;;;708081;197;919223;-71
2022/12/27 05:58:03;;;;;;;2.70;1.30;;;;;;;;;;711515;197;919100;-62
2022/12/27 06:00:29;;;;;;;4.83;1.43;;;;;;;;;;714904;197;919237;-62
2022/12/27 06:02:55;;;;;;;2.60;1.80;;;;;;;;;;710256;197;917657;-64
2022/12/27 06:05:21;;;;;;;2.50;1.60;;;;;;;;;;717265;195;911796;-71
2022/12/27 06:07:47;;;;;;;2.93;1.60;;;;;;;;;;709032;196;915182;-62
2022/12/27 06:10:12;;;;;;;5.03;1.80;;;;;;;;;;708180;197;923942;-70
2022/12/27 06:12:38;;;;;;;2.80;1.62;;;;;;;;;;714918;197;817627;-71
2022/12/27 06:15:05;;;;;;;3.10;1.70;;;;;;;;;;705453;197;1125261;-62
2022/12/27 06:17:31;;;;;;;3.87;2.25;;;;;;;;;;709165;197;818484;-69
2022/12/27 06:19:56;;;;;;;3.37;1.97;;;;;;;;;;712312;197;933257;-72
2022/12/27 06:22:22;;;;;;;3.83;2.10;;;;;;;;;;710230;197;902353;-71
2022/12/27 06:24:48;;;;;;;3.87;1.57;;;;;;;;;;709486;197;816042;-62
2022/12/27 06:27:15;;;;;;;2.95;2.03;;;;;;;;;;710318;199;917003;-70
2022/12/27 06:29:41;;;;;;;3.87;2.03;;;;;;;;;;710521;197;919306;-62
2022/12/27 06:32:06;;;;;;;4.03;1.40;;;;;;;;;;710159;197;816127;-71
2022/12/27 06:34:32;;;;;;;4.00;2.00;;;;;;;;;;710821;197;820025;-62
2022/12/27 06:36:58;;;;;;;3.67;1.77;;;;;;;;;;711805;197;846638;-72
2022/12/27 06:39:24;;;;;;;4.00;2.27;;;;;;;;;;704906;196;922000;-70
2022/12/27 06:41:53;;;;;;;3.75;1.50;;;;;;;;;;711170;197;907259;-71
2022/12/27 06:44:16;;;;;;;3.40;2.00;;;;;;;;;;712489;194;918833;-70
2022/12/27 06:46:42;;;;;;;7.63;1.63;;;;;;;;;;705365;197;921297;-62
2022/12/27 06:49:07;;;;;;;3.63;1.87;;;;;;;;;;705531;198;926176;-71
2022/12/27 06:51:33;;;;;;;6.70;1.93;;;;;;;;;;707952;197;833766;-62
2022/12/27 06:53:59;;;;;;;3.40;1.67;;;;;;;;;;709897;197;919173;-61
2022/12/27 06:56:25;;;;;;;3.73;1.77;;;;;;;;;;708175;197;908087;-62
2022/12/27 06:58:51;;;;;;;5.00;2.10;;;;;;;;;;705768;197;918248;-70
2022/12/27 07:01:17;;;;;;;6.43;1.70;;;;;;;;;;716718;195;921300;-71
2022/12/27 07:03:42;;;;;;;3.53;2.00;;;;;;;;;;709608;196;921042;-71
2022/12/27 07:06:08;;;;;;;5.93;2.00;;;;;;;;;;713999;197;921314;-70
2022/12/27 07:08:34;;;;;;;6.30;2.20;;;;;;;;;;712954;190;1026418;-62
2022/12/27 07:11:00;;;;;;;4.00;2.13;;;;;;;;;;710148;197;921304;-73
2022/12/27 07:13:26;;;;;;;8.77;2.90;;;;;;;;;;710317;197;918788;-62
2022/12/27 07:15:52;;;;;;;8.60;3.23;;;;;;;;;;711934;197;920427;-71
2022/12/27 07:18:17;;;;;;;9.00;2.50;;;;;;;;;;707754;197;918434;-62
2022/12/27 07:20:43;;;;;;;5.13;2.23;;;;;;;;;;708585;197;822725;-71
2022/12/27 07:23:09;;;;;;;6.73;2.57;;;;;;;;;;707793;197;817069;-71
2022/12/27 07:25:35;;;;;;;6.22;2.20;;;;;;;;;;710429;195;918510;-72
2022/12/27 07:28:01;;;;;;;3.10;1.93;;;;;;;;;;708080;197;917488;-71
2022/12/27 07:30:28;;;;;;;6.40;2.23;;;;;;;;;;709471;197;914775;-71
2022/12/27 07:32:52;;;;;;;4.57;2.23;;;;;;;;;;714022;197;920911;-62
2022/12/27 07:35:18;;;;;;;4.80;2.53;;;;;;;;;;705888;197;918829;-71
2022/12/27 07:37:44;;;;;;;4.00;2.80;;;;;;;;;;706427;197;918825;-62
2022/12/27 07:40:10;;;;;;;5.10;2.47;;;;;;;;;;712476;197;919328;-72
2022/12/27 07:42:36;;;;;;;3.97;2.50;;;;;;;;;;709039;197;715824;-71
2022/12/27 07:45:02;;;;;;;3.58;2.25;;;;;;;;;;708035;197;920133;-62
2022/12/27 07:47:28;;;;;;;5.15;3.10;;;;;;;;;;708888;197;818548;-63
2022/12/27 07:49:54;;;;;;;4.93;2.30;;;;;;;;;;712617;195;817582;-62
2022/12/27 07:52:20;;;;;;;6.93;3.47;;;;;;;;;;705758;197;905216;-71
2022/12/27 07:54:46;;;;;;;5.03;2.40;;;;;;;;;;714831;194;813210;-71
2022/12/27 07:57:11;;;;;;;6.67;2.67;;;;;;;;;;714427;179;815966;-69
2022/12/27 07:59:37;;;;;;;4.53;2.60;;;;;;;;;;758507;183;795750;-70
2022/12/27 08:02:03;;;;;;;4.87;2.40;;;;;;;;;;749448;183;919207;-69
2022/12/27 08:04:29;;;;;;;6.20;2.57;;;;;;;;;;740090;190;919510;-70
2022/12/27 08:06:56;;;;;;;6.60;2.30;;;;;;;;;;730400;190;918397;-70
2022/12/27 08:09:21;;;;;;;5.40;2.97;;;;;;;;;;736180;187;918340;-70
2022/12/27 08:11:48;;;;;;;5.50;2.85;;;;;;;;;;740080;187;1020577;-71
2022/12/27 08:14:14;;;;;;;10.33;3.30;;;;;;;;;;744730;189;919467;-70
2022/12/27 08:16:40;;;;;;;5.47;2.80;;;;;;;;;;744229;185;944428;-70
2022/12/27 08:19:06;;;;;;;5.57;3.83;;;;;;;;;;736802;187;818584;-70
2022/12/27 08:21:32;;;;;;;6.63;3.77;;;;;;;;;;741386;188;815863;-69
2022/12/27 08:23:57;;;;;;;7.20;3.27;;;;;;;;;;734323;190;820434;-70
2022/12/27 08:26:23;;;;;;;7.80;5.53;;;;;;;;;;745313;185;918662;-70
2022/12/27 08:28:49;;;;;;;40.87;18.97;;;;;;;;;;740167;189;919892;-70
2022/12/27 08:31:15;;;;;;;31.00;15.43;;;;;;;;;;735594;190;817901;-71
2022/12/27 08:33:41;;;;;;;11.20;6.70;;;;;;;;;;739891;185;1020602;-71
2022/12/27 08:36:07;;;;;;;15.03;9.30;;;;;;;;;;739987;187;915678;-71
2022/12/27 08:38:33;;;;;;;18.87;6.43;;;;;;;;;;732797;190;916111;-71
2022/12/27 08:40:59;;;;;;;8.20;5.43;;;;;;;;;;744466;185;902275;-72
2022/12/27 08:43:24;;;;;;;12.00;5.63;;;;;;;;;;734819;187;923282;-71
2022/12/27 08:45:50;;;;;;;9.33;5.30;;;;;;;;;;744828;185;887362;-71
2022/12/27 08:48:16;;;;;;;8.60;3.87;;;;;;;;;;739049;186;919303;-70
2022/12/27 08:50:42;;;;;;;8.10;3.47;;;;;;;;;;735417;186;918658;-70
2022/12/27 08:53:08;;;;;;;6.33;3.03;;;;;;;;;;739599;190;918598;-71
2022/12/27 08:55:34;;;;;;;7.12;3.70;;;;;;;;;;742510;185;921174;-70
2022/12/27 08:58:00;;;;;;;6.63;3.90;;;;;;;;;;740324;185;1021575;-71
2022/12/27 09:00:25;;;;;;;5.10;3.33;;;;;;;;;;743848;186;916700;-71
2022/12/27 09:02:51;;;;;;;5.57;3.13;;;;;;;;;;732541;190;816322;-70
2022/12/27 09:05:18;;;;;;;10.40;3.10;;;;;;;;;;745496;185;918578;-70
2022/12/27 09:07:43;;;;;;;6.00;3.00;;;;;;;;;;739644;187;916448;-71
2022/12/27 09:10:09;;;;;;;7.87;2.90;;;;;;;;;;739724;189;915428;-70
2022/12/27 09:12:35;;;;;;;6.80;2.60;;;;;;;;;;739559;186;915593;-71
2022/12/27 09:15:01;;;;;;;4.90;2.78;;;;;;;;;;736416;190;914483;-71
2022/12/27 09:17:26;;;;;;;3.80;2.23;;;;;;;;;;737520;187;816216;-71
2022/12/27 09:19:52;;;;;;;8.20;2.80;;;;;;;;;;733819;190;816091;-70
2022/12/27 09:22:18;;;;;;;5.50;2.87;;;;;;;;;;739492;188;713651;-70
2022/12/27 09:24:44;;;;;;;4.80;2.70;;;;;;;;;;754080;184;785422;-71
2022/12/27 09:27:10;;;;;;;4.83;2.63;;;;;;;;;;750200;186;815929;-70
2022/12/27 09:29:36;;;;;;;7.33;2.50;;;;;;;;;;750698;186;816997;-70
2022/12/27 09:32:02;;;;;;;7.25;3.10;;;;;;;;;;743143;189;917715;-71
2022/12/27 09:34:28;;;;;;;10.00;3.03;;;;;;;;;;741175;188;713935;-70
2022/12/27 09:36:54;;;;;;;5.70;3.17;;;;;;;;;;747170;184;816192;-70
2022/12/27 09:39:20;;;;;;;6.80;3.47;;;;;;;;;;738747;188;817076;-70
2022/12/27 09:41:51;;;;;;;6.50;2.90;;;;;;;;;;745292;186;919502;-71
2022/12/27 09:44:17;;;;;;;8.53;3.67;;;;;;;;;;726830;190;919382;-70
2022/12/27 09:46:43;;;;;;;8.20;3.03;;;;;;;;;;738424;186;844661;-71
2022/12/27 09:49:10;;;;;;;5.05;3.45;;;;;;;;;;740203;187;918998;-71
2022/12/27 09:51:36;;;;;;;3.40;2.50;;;;;;;;;;739789;187;815992;-71
2022/12/27 09:54:01;;;;;;;4.60;2.90;;;;;;;;;;733979;187;918261;-71
2022/12/27 09:56:27;;;;;;;6.18;3.42;;;;;;;;;;735825;188;812504;-71
2022/12/27 09:58:54;;;;;;;4.90;3.03;;;;;;;;;;747987;186;920896;-71
2022/12/27 10:01:20;;;;;;;3.70;2.57;;;;;;;;;;740525;185;710354;-71
2022/12/27 10:03:46;;;;;;;7.27;3.17;;;;;;;;;;742564;186;794417;-71
2022/12/27 10:06:23;;;;;;;10.47;3.10;;;;;;;;;;754073;185;613986;-71
2022/12/27 10:08:59;;;;;;;3.93;2.57;;;;;;;;;;748644;188;911674;-71
2022/12/27 10:13:57;;;;;;;4.57;2.87;;;;;;;;;;741373;187;917338;-70
2022/12/27 10:16:28;;;;;;;6.23;2.97;;;;;;;;;;732962;190;816105;-71
2022/12/27 10:18:59;;;;;;;5.50;2.97;;;;;;;;;;732494;191;629617;-71
2022/12/27 10:21:25;;;;;;;4.63;3.03;;;;;;;;;;745797;188;918235;-71
2022/12/27 10:23:55;;;;;;;6.03;2.67;;;;;;;;;;750995;185;818104;-70
2022/12/27 10:26:20;;;;;;;4.80;2.23;;;;;;;;;;743916;187;818076;-70
2022/12/27 10:28:46;;;;;;;4.20;2.20;;;;;;;;;;753972;184;919523;-71
2022/12/27 10:31:12;;;;;;;3.90;1.87;;;;;;;;;;744850;188;1016891;-70
2022/12/27 10:33:39;;;;;;;5.27;2.47;;;;;;;;;;748416;186;919117;-70
2022/12/27 10:36:07;;;;;;;4.53;1.93;;;;;;;;;;741131;188;820261;-71
2022/12/27 10:38:33;;;;;;;5.87;2.23;;;;;;;;;;738562;188;918160;-71
2022/12/27 10:41:05;;;;;;;4.30;2.13;;;;;;;;;;748672;184;919140;-70
2022/12/27 10:43:31;;;;;;;4.73;3.00;;;;;;;;;;746887;186;934533;-71
2022/12/27 10:45:57;;;;;;;6.03;2.03;;;;;;;;;;740024;189;918602;-71
2022/12/27 10:48:24;;;;;;;6.30;2.00;;;;;;;;;;738345;188;826302;-70
2022/12/27 10:50:53;;;;;;;4.40;2.00;;;;;;;;;;743133;186;816233;-71
2022/12/27 10:53:24;;;;;;;4.40;2.03;;;;;;;;;;732314;190;918599;-71
2022/12/27 10:55:50;;;;;;;5.40;2.10;;;;;;;;;;739588;190;918776;-71
2022/12/27 10:58:20;;;;;;;5.43;2.10;;;;;;;;;;738315;188;759383;-71
2022/12/27 11:00:51;;;;;;;6.23;2.00;;;;;;;;;;732878;191;816577;-70
2022/12/27 11:03:17;;;;;;;5.07;2.40;;;;;;;;;;744971;186;818442;-71
2022/12/27 11:05:43;;;;;;;4.67;2.17;;;;;;;;;;743795;186;1021588;-77
2022/12/27 11:08:13;;;;;;;2.90;1.60;;;;;;;;;;740110;187;918879;-77
2022/12/27 11:10:39;;;;;;;4.80;1.80;;;;;;;;;;734632;189;1019825;-77
2022/12/27 11:13:05;;;;;;;5.87;1.97;;;;;;;;;;737658;184;920229;-76
2022/12/27 11:15:30;;;;;;;8.03;2.23;;;;;;;;;;740115;186;1019858;-78
2022/12/27 11:17:56;;;;;;;3.40;1.90;;;;;;;;;;742119;185;1021077;-77
2022/12/27 11:20:22;;;;;;;7.10;2.70;;;;;;;;;;731714;190;918611;-77
2022/12/27 11:22:58;;;;;;;4.53;2.00;;;;;;;;;;736535;190;918787;-76
2022/12/27 11:25:24;;;;;;;2.60;1.80;;;;;;;;;;750659;187;707131;-76
2022/12/27 11:27:50;;;;;;;4.13;1.90;;;;;;;;;;749342;183;816246;-76
2022/12/27 11:30:23;;;;;;;5.07;2.23;;;;;;;;;;738969;190;931991;-77
2022/12/27 11:32:49;;;;;;;6.00;2.33;;;;;;;;;;737867;187;918497;-76
2022/12/27 11:35:15;;;;;;;5.30;2.30;;;;;;;;;;741728;188;814225;-77
2022/12/27 11:37:41;;;;;;;5.57;2.10;;;;;;;;;;738905;186;912819;-77
2022/12/27 11:40:09;;;;;;;5.97;2.40;;;;;;;;;;732451;190;816043;-77
2022/12/27 11:42:37;;;;;;;4.07;2.40;;;;;;;;;;743310;185;919312;-77
2022/12/27 11:45:02;;;;;;;3.93;2.00;;;;;;;;;;736306;185;932629;-77
2022/12/27 11:47:30;;;;;;;4.27;2.10;;;;;;;;;;736968;187;825079;-76
2022/12/27 11:49:55;;;;;;;4.97;2.90;;;;;;;;;;742449;189;892602;-76
2022/12/27 11:52:23;;;;;;;7.50;2.33;;;;;;;;;;744484;185;939985;-76
2022/12/27 11:54:55;;;;;;;3.37;3.07;;;;;;;;;;735958;188;925548;-76
2022/12/27 11:57:34;;;;;;;4.20;2.37;;;;;;;;;;738275;188;812140;-76
2022/12/27 12:00:05;;;;;;;6.25;3.10;;;;;;;;;;746760;184;914217;-76
2022/12/27 12:02:46;;;;;;;5.50;2.20;;;;;;;;;;751214;185;801636;-76
2022/12/27 12:05:17;;;;;;;5.70;2.20;;;;;;;;;;738331;188;918671;-76
2022/12/27 12:08:01;;;;;;;3.80;1.70;;;;;;;;;;742118;184;917910;-77
2022/12/27 12:10:44;;;;;;;3.70;1.87;;;;;;;;;;745790;186;906162;-76
2022/12/27 12:13:12;;;;;;;4.10;2.20;;;;;;;;;;745021;186;913687;-76
2022/12/27 12:15:41;;;;;;;6.27;2.87;;;;;;;;;;745373;186;915515;-77
2022/12/27 12:18:08;;;;;;;6.20;1.77;;;;;;;;;;734009;189;1017570;-76
2022/12/27 12:20:48;;;;;;;7.10;2.90;;;;;;;;;;745661;186;819031;-75
2022/12/27 12:23:18;;;;;;;3.13;2.30;;;;;;;;;;740916;187;808828;-76
2022/12/27 12:25:59;;;;;;;3.23;1.70;;;;;;;;;;745377;187;907347;-76
2022/12/27 12:28:30;;;;;;;4.10;2.40;;;;;;;;;;736882;186;915943;-76
2022/12/27 12:30:57;;;;;;;5.07;2.20;;;;;;;;;;748216;184;916201;-76
2022/12/27 12:33:23;;;;;;;11.10;3.00;;;;;;;;;;739210;184;813013;-77
2022/12/27 12:35:53;;;;;;;4.93;2.72;;;;;;;;;;745969;183;891487;-77
2022/12/27 12:38:19;;;;;;;5.93;2.93;;;;;;;;;;743730;185;952069;-78
2022/12/27 12:41:01;;;;;;;9.30;2.47;;;;;;;;;;745272;185;923589;-78
2022/12/27 12:43:28;;;;;;;7.40;2.10;;;;;;;;;;746185;186;918645;-75
2022/12/27 12:45:59;;;;;;;4.75;2.30;;;;;;;;;;733824;190;919512;-77
2022/12/27 12:48:31;;;;;;;5.10;2.40;;;;;;;;;;733019;190;922953;-77
2022/12/27 12:50:59;;;;;;;4.22;2.30;;;;;;;;;;743316;185;918833;-76
2022/12/27 12:53:27;;;;;;;4.70;2.37;;;;;;;;;;741614;186;918984;-78
2022/12/27 12:55:54;;;;;;;3.57;2.30;;;;;;;;;;741678;187;918824;-77
2022/12/27 12:58:37;;;;;;;5.07;2.37;;;;;;;;;;733689;190;919452;-77
2022/12/27 13:01:09;;;;;;;5.20;2.77;;;;;;;;;;731444;189;932407;-78
2022/12/27 13:03:45;;;;;;;5.77;2.43;;;;;;;;;;739533;185;1020323;-77
2022/12/27 13:06:17;;;;;;;4.67;2.33;;;;;;;;;;747658;188;817395;-76
2022/12/27 13:08:44;;;;;;;6.10;2.13;;;;;;;;;;730399;189;808668;-76
2022/12/27 13:11:11;;;;;;;3.93;1.80;;;;;;;;;;736823;188;926740;-76
2022/12/27 13:13:44;;;;;;;3.90;1.60;;;;;;;;;;746205;185;915426;-77
2022/12/27 13:16:11;;;;;;;2.80;1.67;;;;;;;;;;738741;189;916198;-76
2022/12/27 13:18:37;;;;;;;5.35;2.75;;;;;;;;;;741073;188;920610;-76
2022/12/27 13:21:20;;;;;;;5.27;3.07;;;;;;;;;;738145;184;977171;-76
2022/12/27 13:23:51;;;;;;;5.87;2.90;;;;;;;;;;745767;183;918921;-75
2022/12/27 13:26:31;;;;;;;9.73;6.03;;;;;;;;;;733410;188;919428;-75
2022/12/27 13:29:14;;;;;;;3.77;2.30;;;;;;;;;;724367;190;919095;-74
2022/12/27 13:31:40;;;;;;;10.90;2.73;;;;;;;;;;735909;186;917620;-75
2022/12/27 13:34:12;;;;;;;5.50;2.77;;;;;;;;;;734935;188;918901;-74
2022/12/27 13:36:42;;;;;;;4.00;2.20;;;;;;;;;;735926;189;957735;-76
2022/12/27 13:39:13;;;;;;;8.90;2.47;;;;;;;;;;734660;188;829851;-75
2022/12/27 13:41:41;;;;;;;4.97;2.47;;;;;;;;;;743541;186;1020923;-76
2022/12/27 13:44:13;;;;;;;6.97;2.85;;;;;;;;;;735203;189;921256;-75
2022/12/27 13:46:45;;;;;;;5.47;2.70;;;;;;;;;;742932;186;1201994;-76
2022/12/27 13:49:17;;;;;;;5.50;2.77;;;;;;;;;;744916;186;813982;-75
2022/12/27 13:51:42;;;;;;;3.63;2.37;;;;;;;;;;742084;186;913762;-74
2022/12/27 13:54:15;;;;;;;3.87;1.73;;;;;;;;;;733827;190;1117489;-75
2022/12/27 13:56:54;;;;;;;3.60;2.13;;;;;;;;;;744192;186;815153;-75
2022/12/27 13:59:21;;;;;;;7.23;2.37;;;;;;;;;;751133;185;819669;-76
2022/12/27 14:02:05;;;;;;;6.40;2.63;;;;;;;;;;746555;185;904494;-77
2022/12/27 14:04:37;;;;;;;8.83;3.33;;;;;;;;;;742239;188;817031;-75
2022/12/27 14:07:08;;;;;;;6.57;3.70;;;;;;;;;;746718;185;917952;-75
2022/12/27 14:09:38;;;;;;;9.67;3.00;;;;;;;;;;733306;188;1018657;-75
2022/12/27 14:12:08;;;;;;;5.25;2.65;;;;;;;;;;742525;184;917272;-75
2022/12/27 14:14:34;;;;;;;9.07;3.87;;;;;;;;;;739515;188;897884;-75
2022/12/27 14:17:07;;;;;;;3.80;2.40;;;;;;;;;;749193;185;918847;-76
2022/12/27 14:19:51;;;;;;;6.50;2.43;;;;;;;;;;731931;189;1024104;-76
2022/12/27 14:22:23;;;;;;;6.40;2.17;;;;;;;;;;747275;184;816845;-75
2022/12/27 14:24:54;;;;;;;5.43;2.87;;;;;;;;;;748345;185;918579;-75
2022/12/27 14:27:34;;;;;;;6.20;2.63;;;;;;;;;;739540;182;918558;-77
2022/12/27 14:30:01;;;;;;;6.03;2.57;;;;;;;;;;710718;193;918456;-74
2022/12/27 14:32:33;;;;;;;8.23;2.90;;;;;;;;;;735832;189;919080;-74
2022/12/27 14:35:04;;;;;;;5.57;2.40;;;;;;;;;;741542;184;921187;-75
2022/12/27 14:37:30;;;;;;;6.53;2.63;;;;;;;;;;748204;183;817184;-75
2022/12/27 14:40:02;;;;;;;6.10;2.07;;;;;;;;;;748893;185;816747;-74
2022/12/27 14:42:34;;;;;;;2.73;1.53;;;;;;;;;;744564;186;916240;-75
2022/12/27 14:45:00;;;;;;;5.13;2.47;;;;;;;;;;748757;185;814611;-74
2022/12/27 14:47:41;;;;;;;6.85;2.22;;;;;;;;;;746778;185;918644;-76
2022/12/27 14:50:13;;;;;;;18.77;4.07;;;;;;;;;;743135;185;919472;-76
2022/12/27 14:52:51;;;;;;;8.33;3.57;;;;;;;;;;734709;189;1021530;-75
2022/12/27 14:55:27;;;;;;;11.47;4.27;;;;;;;;;;737135;186;919742;-75
2022/12/27 14:58:04;;;;;;;5.40;3.60;;;;;;;;;;747302;185;1020713;-75
2022/12/27 15:00:30;;;;;;;10.10;3.60;;;;;;;;;;747792;186;815470;-75
2022/12/27 15:03:00;;;;;;;9.67;4.07;;;;;;;;;;737885;189;919091;-75
2022/12/27 15:05:35;;;;;;;6.40;3.03;;;;;;;;;;733751;187;918937;-75
2022/12/27 15:08:18;;;;;;;6.60;2.73;;;;;;;;;;737497;185;915261;-76
2022/12/27 15:10:46;;;;;;;3.73;2.20;;;;;;;;;;739832;186;918992;-75
2022/12/27 15:13:15;;;;;;;4.27;2.50;;;;;;;;;;740576;187;896350;-76
2022/12/27 15:15:44;;;;;;;5.00;2.67;;;;;;;;;;745572;185;1007583;-75
2022/12/27 15:18:16;;;;;;;9.20;3.30;;;;;;;;;;747258;185;917992;-75
2022/12/27 15:20:56;;;;;;;4.87;3.28;;;;;;;;;;737545;185;915953;-74
2022/12/27 15:23:22;;;;;;;4.10;2.37;;;;;;;;;;741595;184;919226;-74
2022/12/27 15:25:52;;;;;;;4.60;2.13;;;;;;;;;;744509;187;906456;-75
2022/12/27 15:28:20;;;;;;;4.50;2.93;;;;;;;;;;738987;185;937885;-75
2022/12/27 15:30:55;;;;;;;4.93;2.60;;;;;;;;;;748978;185;907978;-74
2022/12/27 15:33:22;;;;;;;5.30;2.90;;;;;;;;;;749710;185;781084;-75
2022/12/27 15:36:05;;;;;;;7.07;3.40;;;;;;;;;;734274;189;1015485;-74
2022/12/27 15:38:35;;;;;;;6.27;2.80;;;;;;;;;;724616;190;889770;-73
2022/12/27 15:41:09;;;;;;;6.60;4.00;;;;;;;;;;748271;188;930203;-75
2022/12/27 15:43:39;;;;;;;7.13;4.00;;;;;;;;;;735198;190;891100;-74
2022/12/27 15:46:09;;;;;;;4.43;2.63;;;;;;;;;;742860;185;919250;-74
2022/12/27 15:48:34;;;;;;;7.57;3.20;;;;;;;;;;737199;185;918097;-75
2022/12/27 15:51:06;;;;;;;5.87;4.00;;;;;;;;;;735310;186;916297;-74
2022/12/27 15:53:38;;;;;;;7.40;4.43;;;;;;;;;;733854;188;918810;-75
2022/12/27 15:56:07;;;;;;;8.60;4.47;;;;;;;;;;741066;186;917374;-75
2022/12/27 15:58:33;;;;;;;6.83;4.27;;;;;;;;;;737399;190;816502;-75
2022/12/27 16:01:04;;;;;;;9.05;3.97;;;;;;;;;;739946;187;816874;-74
2022/12/27 16:03:30;;;;;;;8.30;4.70;;;;;;;;;;742015;188;812922;-74
2022/12/27 16:05:56;;;;;;;12.50;4.97;;;;;;;;;;747181;185;919307;-74
2022/12/27 16:08:26;;;;;;;9.27;5.40;;;;;;;;;;735289;190;927086;-75
2022/12/27 16:10:52;;;;;;;11.13;4.23;;;;;;;;;;742673;186;815894;-75
2022/12/27 16:13:34;;;;;;;7.57;4.50;;;;;;;;;;736106;185;924839;-75